Aeroporto :
LOGIN :

Iscrizione | Disclaimer

   EN    FR    IT 

 










Sommario :    VFR   VFR Marginale   IFR   IFR Intensivo   IFR Molto Intensivo
Visibilità : 
Base nubi : 
>= 8 km
>= 3000ft
5 / 8 km
1000 / 3000 ft
1500m / 5 km
500 / 1000 ft
800 / 1500m
200 / 500 ft
< 800m
< 200 ft
Simboli :   Temporali  Nebbia  Neve Forte  Precipitazioni Forti  Vento > 20 kt
SIGMETs :   Varie  Temporali  Ghiacco  Turbolenza  Onda orograficha  Ceneri Vulcaniche






- Altitudine del aeroporto : 401 ft
- Codice IATA : LEQ


EGHC - Land's End

ULTIMO METAR :
  • 270720Z 26015KT 9999 FEW010 FEW015CB FEW018CB 13/09 Q1009

METARs OBSOLETI :
  • 270650Z 25016KT 9999 FEW010 FEW015CB 12/10 Q1008
  • 270620Z 25014KT 9999 FEW010 FEW015CB 12/09 Q1008

TAF TAF EGHC
Valido dal 27 a 06 ore il 27 a 15 ore UTC


270656Z 2706/2715 26012KT 9999 SCT030
TEMPO 2706/2715 27018G28KT 7000 SHRA
PROB30
TEMPO 2708/2715 4000 +SHRA



MetMap, La meteo Aeronautica in un colpo d'occhio ! - Copyright ORBIFLY Dicembre 2007 - Disclaimer

ORBIFLY MET'MAP TEAM :

Programmazione e sviluppo : Alexandra Zaïnal
Concezione : Baudouin d'Aumeries
Aiuto per la programmazione : Marc-Olivier Méhu
Supporto tecnico e logistico : Manuel Goepfert
Aiuto per la traduzione : Arnaldo La Scala

Contatto : metmap@orbifly.com




FONTI E CREDITI :

   NOAA